Peru, Nebraska
Current Conditions -  °F | °C
As of 2:35 PM on Monday 22 Dec 2014 (Local Time) from KAFK Reporting Station
Moderate Rain Moderate Rain  
Wind Chill: 37°   Ceiling: 1400
Heat Index: 42°   Visibility: 7mi
Dew Point: 42°   Wind: 9mph
Humidity: 100%   Direction: 320°NW
Pressure: 29.4"   Gusts: NA
Location:  40.47°N, 95.73°W
Report Text: KAFK 222035Z AUTO 32008KT 7SM RA BKN014 BKN019 OVC037 06/06 A2940 RMK AO2 P0001 T00580058
Loading
Personal Weather Stations






























Interactive Weather Map New forecast layout! Learn more

10-Day Weather Forecast

Advertisements
Track Severe Weather on mobile